createdAt,value
2018-05-21T00:02:06.674Z,21.00
2018-05-21T00:04:34.891Z,21.00
2018-05-21T00:07:03.107Z,20.90
2018-05-21T00:09:31.367Z,20.90
2018-05-21T00:11:59.591Z,20.90
2018-05-21T00:14:27.877Z,20.90
2018-05-21T00:16:56.072Z,20.90
2018-05-21T00:19:24.438Z,20.90
2018-05-21T00:21:52.637Z,20.90
2018-05-21T00:24:20.846Z,20.80
2018-05-21T00:26:49.091Z,20.80
2018-05-21T00:29:18.072Z,20.80
2018-05-21T00:31:46.305Z,20.80
2018-05-21T00:34:14.494Z,20.80
2018-05-21T00:36:42.747Z,20.80
2018-05-21T00:39:10.970Z,20.80
2018-05-21T00:41:39.174Z,20.80
2018-05-21T00:44:07.437Z,20.70
2018-05-21T00:46:36.435Z,20.70
2018-05-21T00:49:05.388Z,20.70
2018-05-21T00:51:33.596Z,20.70
2018-05-21T00:54:01.795Z,20.70
2018-05-21T00:56:30.098Z,20.70
2018-05-21T00:58:58.347Z,20.70
2018-05-21T01:01:26.549Z,20.60
2018-05-21T01:03:54.763Z,20.60
2018-05-21T01:06:23.723Z,20.60
2018-05-21T01:08:51.928Z,20.60
2018-05-21T01:11:20.923Z,20.60
2018-05-21T01:13:49.176Z,20.60
2018-05-21T01:16:17.393Z,20.60
2018-05-21T01:18:45.597Z,20.50
2018-05-21T01:21:13.799Z,20.50
2018-05-21T01:23:41.998Z,20.50
2018-05-21T01:26:10.202Z,20.50
2018-05-21T01:28:38.422Z,20.50
2018-05-21T01:31:06.626Z,20.50
2018-05-21T01:33:34.902Z,20.50
2018-05-21T01:36:03.100Z,20.50
2018-05-21T01:38:31.303Z,20.50
2018-05-21T01:40:59.510Z,20.40
2018-05-21T01:43:27.730Z,20.50
2018-05-21T01:45:55.938Z,20.40
2018-05-21T01:48:24.157Z,20.40
2018-05-21T01:50:52.394Z,20.40
2018-05-21T01:53:20.567Z,20.40
2018-05-21T01:55:49.527Z,20.30
2018-05-21T01:58:17.723Z,20.30
2018-05-21T02:00:45.924Z,20.30
2018-05-21T02:03:14.132Z,20.30
2018-05-21T02:05:42.337Z,20.30
2018-05-21T02:08:10.558Z,20.30
2018-05-21T02:10:38.763Z,20.30
2018-05-21T02:13:06.963Z,20.30
2018-05-21T02:15:35.178Z,20.30
2018-05-21T02:18:03.395Z,20.30
2018-05-21T02:20:31.607Z,20.30
2018-05-21T02:22:59.808Z,20.20
2018-05-21T02:25:28.027Z,20.20
2018-05-21T02:27:56.211Z,20.20
2018-05-21T02:30:25.219Z,20.20
2018-05-21T02:32:53.410Z,20.20
2018-05-21T02:35:21.611Z,20.20
2018-05-21T02:37:49.819Z,20.20
2018-05-21T02:40:18.791Z,20.10
2018-05-21T02:42:47.022Z,20.10
2018-05-21T02:45:15.250Z,20.10
2018-05-21T02:47:43.443Z,20.10
2018-05-21T02:50:11.638Z,20.10
2018-05-21T02:52:48.676Z,20.10
2018-05-21T02:55:16.887Z,20.00
2018-05-21T02:57:45.083Z,20.10
2018-05-21T03:00:13.298Z,20.00
2018-05-21T03:02:41.499Z,20.00
2018-05-21T03:05:09.690Z,20.00
2018-05-21T03:07:37.902Z,20.00
2018-05-21T03:10:06.120Z,20.00
2018-05-21T03:12:34.317Z,20.00
2018-05-21T03:15:02.536Z,19.90
2018-05-21T03:17:30.731Z,19.90
2018-05-21T03:19:58.946Z,19.90
2018-05-21T03:22:27.135Z,19.90
2018-05-21T03:24:55.331Z,19.90
2018-05-21T03:27:23.528Z,19.90
2018-05-21T03:29:51.719Z,19.90
2018-05-21T03:32:19.931Z,19.90
2018-05-21T03:34:48.138Z,19.80
2018-05-21T03:37:16.336Z,19.90
2018-05-21T03:39:44.535Z,19.90
2018-05-21T03:42:12.732Z,19.80
2018-05-21T03:44:40.934Z,19.80
2018-05-21T03:47:09.912Z,19.80
2018-05-21T03:49:38.094Z,19.80
2018-05-21T03:52:06.287Z,19.80
2018-05-21T03:54:34.480Z,19.80
2018-05-21T03:57:02.715Z,19.80
2018-05-21T03:59:42.712Z,19.80
2018-05-21T04:02:22.803Z,19.80
2018-05-21T04:04:51.002Z,19.80
2018-05-21T04:07:19.198Z,19.80
2018-05-21T04:09:47.391Z,19.90
2018-05-21T04:12:15.590Z,19.90
2018-05-21T04:14:43.799Z,19.90
2018-05-21T04:17:12.026Z,20.00
2018-05-21T04:19:40.242Z,20.00
2018-05-21T04:22:08.446Z,20.10
2018-05-21T04:24:36.647Z,20.10
2018-05-21T04:27:04.863Z,20.20
2018-05-21T04:29:33.059Z,20.30
2018-05-21T04:32:01.271Z,20.30
2018-05-21T04:34:29.488Z,20.40
2018-05-21T04:36:57.702Z,20.40
2018-05-21T04:39:25.980Z,20.50
2018-05-21T04:41:54.256Z,20.50
2018-05-21T04:44:22.515Z,20.60
2018-05-21T04:46:50.751Z,20.70
2018-05-21T04:49:19.127Z,20.70
2018-05-21T04:51:47.322Z,20.80
2018-05-21T04:54:16.592Z,20.80
2018-05-21T04:56:45.136Z,20.90
2018-05-21T04:59:13.335Z,21.00
2018-05-21T05:01:41.576Z,21.00
2018-05-21T05:04:09.798Z,21.10
2018-05-21T05:06:38.014Z,21.10
2018-05-21T05:09:06.237Z,21.10
2018-05-21T05:11:35.254Z,21.00
2018-05-21T05:14:03.463Z,21.00
2018-05-21T05:16:31.695Z,21.10
2018-05-21T05:18:59.894Z,21.10
2018-05-21T05:21:28.102Z,21.10
2018-05-21T05:23:56.316Z,21.10
2018-05-21T05:26:24.516Z,21.20
2018-05-21T05:28:52.746Z,21.20
2018-05-21T05:31:20.952Z,21.20
2018-05-21T05:33:49.200Z,21.20
2018-05-21T05:36:17.386Z,21.20
2018-05-21T05:38:45.593Z,21.20
2018-05-21T05:41:13.803Z,21.20
2018-05-21T05:43:42.023Z,21.20
2018-05-21T05:46:10.260Z,21.20
2018-05-21T05:48:38.482Z,21.20
2018-05-21T05:51:06.736Z,21.20
2018-05-21T05:53:34.938Z,21.20
2018-05-21T05:56:03.146Z,21.20
2018-05-21T05:58:31.491Z,21.10
2018-05-21T06:00:59.957Z,21.20
2018-05-21T06:03:28.458Z,21.20
2018-05-21T06:05:56.655Z,21.20
2018-05-21T06:08:25.787Z,21.20
2018-05-21T06:10:54.033Z,21.30
2018-05-21T06:13:22.242Z,21.30
2018-05-21T06:15:50.475Z,21.30
2018-05-21T06:18:18.686Z,21.30
2018-05-21T06:20:46.891Z,21.30
2018-05-21T06:23:15.162Z,21.40
2018-05-21T06:25:43.428Z,21.30
2018-05-21T06:28:11.653Z,21.30
2018-05-21T06:30:40.774Z,21.30
2018-05-21T06:33:09.002Z,21.30
2018-05-21T06:35:37.387Z,21.30
2018-05-21T06:38:05.667Z,21.30
2018-05-21T06:40:33.947Z,21.30
2018-05-21T06:43:02.217Z,21.30
2018-05-21T06:45:30.507Z,21.30
2018-05-21T06:47:58.876Z,21.40
2018-05-21T06:50:27.974Z,21.40
2018-05-21T06:52:56.379Z,21.40
2018-05-21T06:55:24.784Z,21.40
2018-05-21T06:57:53.031Z,21.40
2018-05-21T07:00:21.227Z,21.40
2018-05-21T07:02:49.517Z,21.40
2018-05-21T07:05:17.744Z,21.40
2018-05-21T07:07:46.062Z,21.40
2018-05-21T07:10:14.256Z,21.40
2018-05-21T07:12:42.454Z,21.50
2018-05-21T07:15:11.455Z,21.50
2018-05-21T07:17:39.691Z,21.50
2018-05-21T07:20:07.887Z,21.50
2018-05-21T07:22:36.895Z,21.50
2018-05-21T07:25:05.876Z,21.50
2018-05-21T07:27:34.098Z,21.50
2018-05-21T07:30:02.364Z,21.50
2018-05-21T07:32:30.575Z,21.50
2018-05-21T07:34:58.794Z,21.50
2018-05-21T07:37:27.006Z,21.50
2018-05-21T07:39:55.215Z,21.50
2018-05-21T07:42:23.429Z,21.60
2018-05-21T07:44:52.418Z,21.60
2018-05-21T07:47:20.603Z,21.60
2018-05-21T07:49:48.816Z,21.60
2018-05-21T07:52:17.042Z,21.70
2018-05-21T07:54:45.239Z,21.60
2018-05-21T07:57:13.437Z,21.70
2018-05-21T07:59:41.659Z,21.70
2018-05-21T08:02:10.774Z,21.70
2018-05-21T08:04:38.979Z,21.70
2018-05-21T08:07:07.180Z,21.70
2018-05-21T08:09:35.378Z,21.70
2018-05-21T08:12:03.627Z,21.70
2018-05-21T08:14:31.843Z,21.70
2018-05-21T08:17:00.047Z,21.80
2018-05-21T08:19:28.259Z,21.70
2018-05-21T08:21:56.467Z,21.80
2018-05-21T08:24:24.687Z,21.80
2018-05-21T08:26:53.321Z,21.80
2018-05-21T08:29:22.392Z,21.80
2018-05-21T08:31:50.603Z,21.90
2018-05-21T08:34:18.811Z,21.90
2018-05-21T08:36:47.810Z,21.90
2018-05-21T08:39:16.027Z,21.90
2018-05-21T08:41:44.236Z,22.00
2018-05-21T08:44:13.213Z,22.00
2018-05-21T08:46:42.203Z,22.10
2018-05-21T08:49:10.614Z,22.10
2018-05-21T08:51:38.859Z,22.10
2018-05-21T08:54:07.048Z,22.10
2018-05-21T08:56:35.268Z,22.10
2018-05-21T08:59:03.447Z,22.20
2018-05-21T09:01:31.684Z,22.20
2018-05-21T09:03:59.891Z,22.20
2018-05-21T09:06:28.112Z,22.20
2018-05-21T09:08:56.319Z,22.30
2018-05-21T09:11:24.526Z,22.30
2018-05-21T09:13:52.738Z,22.30
2018-05-21T09:16:21.774Z,22.30
2018-05-21T09:18:49.946Z,22.40
2018-05-21T09:21:18.200Z,22.40
2018-05-21T09:23:47.239Z,22.50
2018-05-21T09:26:15.402Z,22.40
2018-05-21T09:28:43.661Z,22.50
2018-05-21T09:31:11.848Z,22.50
2018-05-21T09:33:40.067Z,22.50
2018-05-21T09:36:09.047Z,22.60
2018-05-21T09:38:37.242Z,22.60
2018-05-21T09:41:06.216Z,22.60
2018-05-21T09:43:35.195Z,22.60
2018-05-21T09:46:03.406Z,22.70
2018-05-21T09:48:32.354Z,22.70
2018-05-21T09:51:00.562Z,22.70
2018-05-21T09:53:28.778Z,22.80
2018-05-21T09:55:56.980Z,22.80
2018-05-21T09:58:25.178Z,22.90
2018-05-21T10:00:54.949Z,22.90
2018-05-21T10:03:23.153Z,22.90
2018-05-21T10:05:52.114Z,23.00
2018-05-21T10:08:20.315Z,22.90
2018-05-21T10:10:49.285Z,23.10
2018-05-21T10:13:17.483Z,23.10
2018-05-21T10:15:45.679Z,23.10
2018-05-21T10:18:13.874Z,23.20
2018-05-21T10:20:42.097Z,23.20
2018-05-21T10:23:10.361Z,23.10
2018-05-21T10:25:38.552Z,23.10
2018-05-21T10:28:07.539Z,23.10
2018-05-21T10:30:36.520Z,23.20
2018-05-21T10:33:04.710Z,23.20
2018-05-21T10:35:33.030Z,23.20
2018-05-21T10:38:01.223Z,23.30
2018-05-21T10:40:29.431Z,23.30
2018-05-21T10:42:58.399Z,23.40
2018-05-21T10:45:26.605Z,23.40
2018-05-21T10:47:54.798Z,23.40
2018-05-21T10:50:22.999Z,23.50
2018-05-21T10:52:51.211Z,23.50
2018-05-21T10:55:19.433Z,23.60
2018-05-21T10:57:47.612Z,23.60
2018-05-21T11:00:15.845Z,23.60
2018-05-21T11:02:44.038Z,23.60
2018-05-21T11:05:12.242Z,23.70
2018-05-21T11:07:40.459Z,23.60
2018-05-21T11:10:08.658Z,23.70
2018-05-21T11:12:36.854Z,23.70
2018-05-21T11:15:05.055Z,23.80
2018-05-21T11:17:33.263Z,23.80
2018-05-21T11:20:02.527Z,23.80
2018-05-21T11:22:30.734Z,23.80
2018-05-21T11:24:58.931Z,23.80
2018-05-21T11:27:27.146Z,23.90
2018-05-21T11:29:55.360Z,23.90
2018-05-21T11:32:23.567Z,23.90
2018-05-21T11:34:51.803Z,23.90
2018-05-21T11:37:20.777Z,24.00
2018-05-21T11:39:48.987Z,24.00
2018-05-21T11:42:17.187Z,24.00
2018-05-21T11:44:45.398Z,24.10
2018-05-21T11:47:13.596Z,24.10
2018-05-21T11:49:41.840Z,24.10
2018-05-21T11:52:10.050Z,24.10
2018-05-21T11:54:38.258Z,24.20
2018-05-21T11:57:06.478Z,24.20
2018-05-21T11:59:35.463Z,24.30
2018-05-21T12:02:03.743Z,24.20
2018-05-21T12:04:31.876Z,24.30
2018-05-21T12:07:00.121Z,24.30
2018-05-21T12:09:28.354Z,24.30
2018-05-21T12:11:56.606Z,24.40
2018-05-21T12:14:24.811Z,24.40
2018-05-21T12:16:53.011Z,24.40
2018-05-21T12:19:21.227Z,24.50
2018-05-21T12:21:49.427Z,24.50
2018-05-21T12:24:17.618Z,24.50
2018-05-21T12:26:45.820Z,24.50
2018-05-21T12:29:14.023Z,24.60
2018-05-21T12:31:42.266Z,24.60
2018-05-21T12:34:10.506Z,24.70
2018-05-21T12:36:39.475Z,24.70
2018-05-21T12:39:07.691Z,24.70
2018-05-21T12:41:35.882Z,24.70
2018-05-21T12:44:04.111Z,24.80
2018-05-21T12:46:32.416Z,24.80
2018-05-21T12:49:00.618Z,24.80
2018-05-21T12:51:28.814Z,24.80
2018-05-21T12:53:57.028Z,24.90
2018-05-21T12:56:25.232Z,24.90
2018-05-21T12:58:53.439Z,24.90
2018-05-21T13:01:21.749Z,24.90
2018-05-21T13:03:49.935Z,25.00
2018-05-21T13:06:18.148Z,25.00
2018-05-21T13:08:46.387Z,25.00
2018-05-21T13:11:14.569Z,25.00
2018-05-21T13:13:42.771Z,25.00
2018-05-21T13:16:10.972Z,25.00
2018-05-21T13:18:39.370Z,25.00
2018-05-21T13:21:07.559Z,25.00
2018-05-21T13:23:35.763Z,25.00
2018-05-21T13:26:03.967Z,25.00
2018-05-21T13:28:32.942Z,25.00
2018-05-21T13:31:01.147Z,25.00
2018-05-21T13:33:29.339Z,25.10
2018-05-21T13:35:57.543Z,25.00
2018-05-21T13:38:25.738Z,25.00
2018-05-21T13:40:53.956Z,25.00
2018-05-21T13:43:22.150Z,25.00
2018-05-21T13:45:50.350Z,24.90
2018-05-21T13:48:18.796Z,24.90
2018-05-21T13:50:47.003Z,24.90
2018-05-21T13:53:15.203Z,24.90
2018-05-21T13:55:44.190Z,24.90
2018-05-21T13:58:13.162Z,24.90
2018-05-21T14:00:41.371Z,24.90
2018-05-21T14:03:09.600Z,25.00
2018-05-21T14:05:37.838Z,25.00
2018-05-21T14:08:06.064Z,25.10
2018-05-21T14:10:34.267Z,23.80
2018-05-21T14:13:02.475Z,25.10
2018-05-21T14:15:30.679Z,25.20
2018-05-21T14:17:58.885Z,25.20
2018-05-21T14:20:27.861Z,25.20
2018-05-21T14:22:56.063Z,25.30
2018-05-21T14:25:24.321Z,25.20
2018-05-21T14:27:52.482Z,25.10
2018-05-21T14:30:20.695Z,25.10
2018-05-21T14:32:48.891Z,25.10
2018-05-21T14:35:17.103Z,25.10
2018-05-21T14:37:45.310Z,25.10
2018-05-21T14:40:13.514Z,25.10
2018-05-21T14:42:41.726Z,25.10
2018-05-21T14:45:10.693Z,25.10
2018-05-21T14:47:38.891Z,25.10
2018-05-21T14:50:07.859Z,25.00
2018-05-21T14:52:36.156Z,25.00
2018-05-21T14:55:04.392Z,25.00
2018-05-21T14:57:32.531Z,25.00
2018-05-21T15:00:00.841Z,25.00
2018-05-21T15:02:29.031Z,24.90
2018-05-21T15:04:57.227Z,24.90
2018-05-21T15:07:25.498Z,24.90
2018-05-21T15:09:53.660Z,24.90
2018-05-21T15:12:21.873Z,24.90
2018-05-21T15:14:50.078Z,24.90
2018-05-21T15:17:18.298Z,24.90
2018-05-21T15:19:46.493Z,24.90
2018-05-21T15:22:14.752Z,24.90
2018-05-21T15:24:42.918Z,24.90
2018-05-21T15:27:11.891Z,24.90
2018-05-21T15:29:40.107Z,24.80
2018-05-21T15:32:08.319Z,24.80
2018-05-21T15:34:36.507Z,24.80
2018-05-21T15:37:04.710Z,24.80
2018-05-21T15:39:32.902Z,24.80
2018-05-21T15:42:01.095Z,24.80
2018-05-21T15:44:29.291Z,24.80
2018-05-21T15:46:57.499Z,24.80
2018-05-21T15:49:26.482Z,24.80
2018-05-21T15:51:54.682Z,24.80
2018-05-21T15:54:22.880Z,24.80
2018-05-21T15:56:51.103Z,24.70
2018-05-21T15:59:19.291Z,24.80
2018-05-21T16:01:47.486Z,24.80
2018-05-21T16:04:15.899Z,24.80
2018-05-21T16:06:44.107Z,24.80
2018-05-21T16:09:12.363Z,24.80
2018-05-21T16:11:40.518Z,24.80
2018-05-21T16:14:08.831Z,24.80
2018-05-21T16:16:37.832Z,24.90
2018-05-21T16:19:06.794Z,24.90
2018-05-21T16:21:35.001Z,24.90
2018-05-21T16:24:03.202Z,24.90
2018-05-21T16:26:31.390Z,24.90
2018-05-21T16:28:59.608Z,24.90
2018-05-21T16:31:27.826Z,24.90
2018-05-21T16:33:56.031Z,24.90
2018-05-21T16:36:24.226Z,24.90
2018-05-21T16:38:52.422Z,24.90
2018-05-21T16:41:20.701Z,24.90
2018-05-21T16:43:48.845Z,24.90
2018-05-21T16:46:17.043Z,24.90
2018-05-21T16:48:45.295Z,25.00
2018-05-21T16:51:13.491Z,23.60
2018-05-21T16:53:41.722Z,25.00
2018-05-21T16:56:09.924Z,25.00
2018-05-21T16:58:38.285Z,25.10
2018-05-21T17:01:06.487Z,25.10
2018-05-21T17:03:34.687Z,25.10
2018-05-21T17:06:02.927Z,25.10
2018-05-21T17:08:31.130Z,25.10
2018-05-21T17:10:59.318Z,25.20
2018-05-21T17:13:27.648Z,25.20
2018-05-21T17:15:56.617Z,25.20
2018-05-21T17:18:24.822Z,25.20
2018-05-21T17:20:53.032Z,25.20
2018-05-21T17:23:21.232Z,25.20
2018-05-21T17:25:49.431Z,25.20
2018-05-21T17:28:18.409Z,25.20
2018-05-21T17:30:46.622Z,25.20
2018-05-21T17:33:14.849Z,25.10
2018-05-21T17:35:43.025Z,25.10
2018-05-21T17:38:11.219Z,25.10
2018-05-21T17:40:39.427Z,25.10
2018-05-21T17:43:07.639Z,25.10
2018-05-21T17:45:35.842Z,25.10
2018-05-21T17:48:04.805Z,25.00
2018-05-21T17:50:33.015Z,25.00
2018-05-21T17:53:01.210Z,25.00
2018-05-21T17:55:29.468Z,25.00
2018-05-21T17:57:57.669Z,25.00
2018-05-21T18:00:25.878Z,24.90
2018-05-21T18:02:54.074Z,24.90
2018-05-21T18:05:22.281Z,24.90
2018-05-21T18:07:50.497Z,24.90
2018-05-21T18:10:18.783Z,24.80
2018-05-21T18:12:46.975Z,24.80
2018-05-21T18:15:15.166Z,24.80
2018-05-21T18:17:43.375Z,24.70
2018-05-21T18:20:11.575Z,24.70
2018-05-21T18:22:40.610Z,24.70
2018-05-21T18:25:08.807Z,24.70
2018-05-21T18:27:37.027Z,24.70
2018-05-21T18:30:05.234Z,24.70
2018-05-21T18:32:33.431Z,24.70
2018-05-21T18:35:01.638Z,24.60
2018-05-21T18:37:30.611Z,24.60
2018-05-21T18:39:58.816Z,24.50
2018-05-21T18:42:27.796Z,24.50
2018-05-21T18:44:55.982Z,24.50
2018-05-21T18:47:24.268Z,24.50
2018-05-21T18:49:52.426Z,24.50
2018-05-21T18:52:20.674Z,24.50
2018-05-21T18:54:48.867Z,24.50
2018-05-21T18:57:17.066Z,24.40
2018-05-21T18:59:45.280Z,24.40
2018-05-21T19:02:13.491Z,24.40
2018-05-21T19:04:42.495Z,24.40
2018-05-21T19:07:10.678Z,24.40
2018-05-21T19:09:38.923Z,24.40
2018-05-21T19:12:07.153Z,24.40
2018-05-21T19:14:35.394Z,24.30
2018-05-21T19:17:03.592Z,24.30
2018-05-21T19:19:31.808Z,24.30
2018-05-21T19:22:00.020Z,24.20
2018-05-21T19:24:28.210Z,24.20
2018-05-21T19:26:56.412Z,24.20
2018-05-21T19:29:24.610Z,24.20
2018-05-21T19:31:52.814Z,24.20
2018-05-21T19:34:21.015Z,24.20
2018-05-21T19:36:49.227Z,24.10
2018-05-21T19:39:17.434Z,24.20
2018-05-21T19:41:45.622Z,24.10
2018-05-21T19:44:13.817Z,24.10
2018-05-21T19:46:42.041Z,24.10
2018-05-21T19:49:11.008Z,24.10
2018-05-21T19:51:39.225Z,24.10
2018-05-21T19:54:07.416Z,24.10
2018-05-21T19:56:35.627Z,24.10
2018-05-21T19:59:04.367Z,24.10
2018-05-21T20:01:32.555Z,24.00
2018-05-21T20:04:00.759Z,24.00
2018-05-21T20:06:28.971Z,24.00
2018-05-21T20:08:57.192Z,24.00
2018-05-21T20:11:25.493Z,24.00
2018-05-21T20:13:53.694Z,24.10
2018-05-21T20:16:21.937Z,24.00
2018-05-21T20:18:50.119Z,24.00
2018-05-21T20:21:19.111Z,24.00
2018-05-21T20:23:48.101Z,24.00
2018-05-21T20:26:16.291Z,24.00
2018-05-21T20:28:45.263Z,23.90
2018-05-21T20:31:13.458Z,24.00
2018-05-21T20:33:41.655Z,23.90
2018-05-21T20:36:09.988Z,23.90
2018-05-21T20:38:38.187Z,23.90
2018-05-21T20:41:06.380Z,23.90
2018-05-21T20:43:34.571Z,23.90
2018-05-21T20:46:02.818Z,23.90
2018-05-21T20:48:31.031Z,23.90
2018-05-21T20:50:59.241Z,23.80
2018-05-21T20:53:27.446Z,23.80
2018-05-21T20:55:55.651Z,23.80
2018-05-21T20:58:23.872Z,23.80
2018-05-21T21:00:52.079Z,23.80
2018-05-21T21:03:20.278Z,23.80
2018-05-21T21:05:48.483Z,23.80
2018-05-21T21:08:16.699Z,23.80
2018-05-21T21:10:44.925Z,23.80
2018-05-21T21:13:13.115Z,23.80
2018-05-21T21:15:41.335Z,23.80
2018-05-21T21:18:09.537Z,23.80
2018-05-21T21:20:37.742Z,23.80
2018-05-21T21:23:05.939Z,23.80
2018-05-21T21:25:34.159Z,23.80
2018-05-21T21:28:02.546Z,23.80
2018-05-21T21:30:30.731Z,23.80
2018-05-21T21:32:58.966Z,23.70
2018-05-21T21:35:27.132Z,23.70
2018-05-21T21:37:55.329Z,23.70
2018-05-21T21:40:23.592Z,23.70
2018-05-21T21:42:51.790Z,23.70
2018-05-21T21:45:19.998Z,23.70
2018-05-21T21:47:48.201Z,23.70
2018-05-21T21:50:16.402Z,23.70
2018-05-21T21:52:44.595Z,23.70
2018-05-21T21:55:12.790Z,23.70
2018-05-21T21:57:41.172Z,23.60
2018-05-21T22:00:09.330Z,23.60
2018-05-21T22:02:37.531Z,23.60
2018-05-21T22:05:05.730Z,23.60
2018-05-21T22:07:33.930Z,23.60
2018-05-21T22:10:02.905Z,23.60
2018-05-21T22:12:31.114Z,23.60
2018-05-21T22:14:59.446Z,23.60
2018-05-21T22:17:27.646Z,23.50
2018-05-21T22:19:55.848Z,23.50
2018-05-21T22:22:24.046Z,23.60
2018-05-21T22:24:52.353Z,23.50
2018-05-21T22:27:20.538Z,23.50
2018-05-21T22:29:48.734Z,23.50
2018-05-21T22:32:16.929Z,23.50
2018-05-21T22:34:45.210Z,23.50
2018-05-21T22:37:13.415Z,23.50
2018-05-21T22:39:41.622Z,23.50
2018-05-21T22:42:09.852Z,23.50
2018-05-21T22:44:41.950Z,23.40
2018-05-21T22:47:10.142Z,23.40
2018-05-21T22:49:38.354Z,23.40
2018-05-21T22:52:06.554Z,23.40
2018-05-21T22:54:36.570Z,23.40
2018-05-21T22:57:04.769Z,23.30
2018-05-21T22:59:32.977Z,23.30
2018-05-21T23:02:01.180Z,23.30
2018-05-21T23:04:29.386Z,23.30
2018-05-21T23:06:57.583Z,23.30
2018-05-21T23:09:25.797Z,23.30
2018-05-21T23:11:54.026Z,23.20
2018-05-21T23:14:22.241Z,23.20
2018-05-21T23:16:50.426Z,23.20
2018-05-21T23:19:18.622Z,23.20
2018-05-21T23:21:46.819Z,23.20
2018-05-21T23:24:15.020Z,23.20
2018-05-21T23:26:43.226Z,23.20
2018-05-21T23:29:11.442Z,23.10
2018-05-21T23:31:39.634Z,23.10
2018-05-21T23:34:07.843Z,23.10
2018-05-21T23:36:36.207Z,23.10
2018-05-21T23:39:05.103Z,23.10
2018-05-21T23:41:33.298Z,23.10
2018-05-21T23:44:01.650Z,23.10
2018-05-21T23:46:29.863Z,23.10
2018-05-21T23:48:58.054Z,23.00
2018-05-21T23:51:26.266Z,23.10
2018-05-21T23:53:54.467Z,23.00
2018-05-21T23:56:22.739Z,23.00
2018-05-21T23:58:50.923Z,23.00
